»·PEaware :: N181CC KAVX-KHMT

N181CC :: KAVX-KHMT

FLIGHT INFORMATION

Flight Status: Arrived
Operator: Privately registered:
United States
More flights under this callsign
Pilot: Christian U. (16550)
Aircraft: PIPER PA-28R-201 ARROW
(P28R)
More flights by this aircraft type
Origin: KAVX Catalina
United States
Destination: KHMT Hemet-Ryan
United States
More flights between these airports :: More routes between these airports
Route:
File this flight plan on PilotEdge
Remarks:
Altitude:
(Current/Filed)
7,500ft
Speed:
(Current/Filed)
120kts
Departed: 25-Feb-19 10:34 AM
Arrived: 25-Feb-19 11:20 AM
Distance/Time
Traveled:
72nm/0:46
Distance/Time
To Go:
Arrived

Flight Plot

Page will automatically refresh every two minutes.

Flight plan parsing failed; only flown route is shown


Map Options




Map Legend


Flown Route
Filed Route
Departure Airport
Arrival Airport
Navaid (VOR, NDB)
Fix

Horizontal Profiles

Position Reports

Time Latitude Longitude Heading Altitude Ground
Speed
25-Feb-19 10:28 33.403581 -118.415661 133 1548ft 0kts
25-Feb-19 10:29 33.403581 -118.415661 133 1548ft 0kts
25-Feb-19 10:30 33.403581 -118.415661 133 1548ft 0kts
25-Feb-19 10:31 33.404381 -118.415010 354 1543ft 0kts
25-Feb-19 10:32 33.405757 -118.413765 54 1526ft 19kts
25-Feb-19 10:33 33.407202 -118.411376 19 1498ft 0kts
25-Feb-19 10:34 33.405482 -118.414933 236 1548ft 62kts
25-Feb-19 10:35 33.391242 -118.435381 207 2335ft 94kts
25-Feb-19 10:36 33.367321 -118.448166 207 3325ft 91kts
25-Feb-19 10:37 33.344559 -118.444949 108 4071ft 110kts
25-Feb-19 10:38 33.337066 -118.406998 105 4674ft 121kts
25-Feb-19 10:39 33.329394 -118.367483 94 5265ft 123kts
25-Feb-19 10:40 33.344026 -118.331750 48 5861ft 120kts
25-Feb-19 10:41 33.364842 -118.299643 48 6374ft 125kts
25-Feb-19 10:42 33.386402 -118.266105 48 6822ft 127kts
25-Feb-19 10:43 33.400248 -118.226861 69 7265ft 130kts
25-Feb-19 10:44 33.410878 -118.183862 69 7478ft 144kts
25-Feb-19 10:44 33.420913 -118.144189 69 7477ft 152kts
25-Feb-19 10:45 33.433289 -118.095514 69 7477ft 153kts
25-Feb-19 10:47 33.446135 -118.037768 74 7491ft 153kts
25-Feb-19 10:47 33.451852 -117.995824 82 7495ft 154kts
25-Feb-19 10:48 33.455035 -117.944500 82 7495ft 154kts
25-Feb-19 10:49 33.458062 -117.893153 82 7495ft 154kts
25-Feb-19 10:51 33.461396 -117.833396 82 7496ft 153kts
25-Feb-19 10:51 33.463683 -117.790909 82 7496ft 153kts
25-Feb-19 10:52 33.466406 -117.739734 82 7496ft 153kts
25-Feb-19 10:53 33.468730 -117.688681 82 7496ft 153kts
25-Feb-19 10:54 33.478375 -117.640535 54 7496ft 147kts
25-Feb-19 10:55 33.498679 -117.597846 52 7496ft 146kts
25-Feb-19 10:56 33.519521 -117.555702 52 7496ft 147kts
25-Feb-19 10:57 33.540375 -117.513645 52 7487ft 147kts
25-Feb-19 10:58 33.561406 -117.471436 52 7487ft 147kts
25-Feb-19 10:59 33.582639 -117.429112 52 7488ft 148kts
25-Feb-19 11:00 33.604186 -117.386497 52 7488ft 149kts
25-Feb-19 11:01 33.624469 -117.342987 62 7485ft 152kts
25-Feb-19 11:02 33.640715 -117.295898 63 7485ft 152kts
25-Feb-19 11:03 33.657241 -117.248355 63 7276ft 157kts
25-Feb-19 11:04 33.671412 -117.198590 70 6817ft 157kts
25-Feb-19 11:05 33.684369 -117.148553 70 6361ft 156kts
25-Feb-19 11:06 33.692518 -117.104472 117 5892ft 123kts
25-Feb-19 11:07 33.670146 -117.078786 96 5431ft 118kts
25-Feb-19 11:08 33.689191 -117.070911 281 4965ft 92kts
25-Feb-19 11:09 33.669354 -117.075130 151 4508ft 108kts
25-Feb-19 11:10 33.667495 -117.047089 12 4045ft 110kts
25-Feb-19 11:11 33.679116 -117.069809 264 3555ft 98kts
25-Feb-19 11:12 33.663656 -117.088389 148 2940ft 111kts
25-Feb-19 11:13 33.673388 -117.061227 20 2578ft 112kts
25-Feb-19 11:14 33.701456 -117.045405 25 2592ft 110kts
25-Feb-19 11:15 33.717408 -117.018102 58 2675ft 103kts
25-Feb-19 11:16 33.730767 -116.988661 58 2597ft 95kts
25-Feb-19 11:17 33.743989 -116.998164 239 1940ft 74kts
25-Feb-19 11:18 33.734851 -117.019478 243 1515ft 55kts
25-Feb-19 11:19 33.732221 -117.024091 153 1515ft 0kts
25-Feb-19 11:20 33.730540 -117.021561 93 1515ft 7kts

Navigation Log

Ident Type
Flight plan parsing failed, navigation log unavailable